Time;durP1;ratioP1;P1;durP2;ratioP2;P2;SDS_P1;SDS_P2;PMS_P1;PMS_P2;Temp;Humidity;BMP_temperature;BMP_pressure;BME280_temperature;BME280_humidity;BME280_pressure;Samples;Min_cycle;Max_cycle;Signal;HPM_P1;HPM_P2
2022/11/10 00:01:57;;;;;;;;;1.00;0.00;;;;;11.74;74.87;101009.75;5017089;28;45759;-75
2022/11/10 00:04:23;;;;;;;;;0.00;0.00;;;;;11.68;75.13;101003.44;5018538;28;46219;-74
2022/11/10 00:06:49;;;;;;;;;0.67;0.67;;;;;11.64;74.83;100980.59;5017932;28;45555;-75
2022/11/10 00:09:15;;;;;;;;;0.67;0.00;;;;;11.73;75.34;100994.88;5018348;28;45306;-75
2022/11/10 00:11:41;;;;;;;;;0.00;0.00;;;;;11.84;75.00;101018.81;5018492;28;45288;-75
2022/11/10 00:17:00;;;;;;;;;0.00;0.00;;;;;11.91;74.81;101014.66;5017826;28;45510;-75
2022/11/10 00:19:27;;;;;;;;;0.00;0.00;;;;;11.91;74.99;101019.91;5018305;28;45482;-75
2022/11/10 00:21:53;;;;;;;;;0.00;0.00;;;;;11.89;75.00;101029.44;5018248;28;45435;-74
2022/11/10 00:24:18;;;;;;;;;2.67;0.33;;;;;11.91;74.59;101031.25;5017034;28;45370;-73
2022/11/10 00:26:44;;;;;;;;;1.67;1.00;;;;;11.85;75.10;101038.00;5012382;28;45576;-75
2022/11/10 00:29:09;;;;;;;;;1.00;1.00;;;;;11.85;74.76;101025.81;5000544;28;45367;-75
2022/11/10 00:31:39;;;;;;;;;1.00;0.00;;;;;11.85;74.96;101023.19;4997584;28;45573;-75
2022/11/10 00:34:05;;;;;;;;;0.00;0.00;;;;;11.89;74.59;101030.31;4997645;28;45669;-74
2022/11/10 00:36:31;;;;;;;;;1.00;1.00;;;;;11.91;74.67;101033.00;4996993;28;45370;-73
2022/11/10 00:38:56;;;;;;;;;0.67;0.00;;;;;11.85;74.23;101020.56;5002184;28;45637;-75
2022/11/10 00:41:22;;;;;;;;;0.00;0.00;;;;;11.86;74.75;101021.47;5008848;28;45304;-75
2022/11/10 00:43:48;;;;;;;;;0.00;0.00;;;;;11.90;75.00;101023.38;5009069;28;46224;-74
2022/11/10 00:46:14;;;;;;;;;1.00;0.00;;;;;11.89;75.76;101032.06;5016636;28;45298;-75
2022/11/10 00:48:40;;;;;;;;;1.00;1.00;;;;;11.89;75.62;101030.31;5016616;28;45451;-75
2022/11/10 00:51:07;;;;;;;;;2.00;2.00;;;;;11.93;75.68;101026.97;5016243;28;45598;-73
2022/11/10 00:53:33;;;;;;;;;3.00;1.00;;;;;11.94;75.62;101020.03;5016338;28;46238;-75
2022/11/10 00:55:58;;;;;;;;;1.00;0.00;;;;;11.98;75.42;101018.38;5007616;28;45472;-74
2022/11/10 00:58:24;;;;;;;;;1.00;1.00;;;;;12.01;75.63;101027.22;5009263;28;45412;-74
2022/11/10 01:00:50;;;;;;;;;1.00;1.00;;;;;11.99;75.49;101020.16;5000473;28;45497;-74
2022/11/10 01:03:16;;;;;;;;;1.00;1.00;;;;;12.04;75.55;101024.72;4997398;28;46093;-75
2022/11/10 01:05:43;;;;;;;;;1.67;1.33;;;;;12.08;75.54;101029.19;5008494;28;45652;-75
2022/11/10 01:08:09;;;;;;;;;1.67;1.67;;;;;11.99;75.52;101028.91;4997250;28;45421;-75
2022/11/10 01:10:35;;;;;;;;;2.67;2.00;;;;;12.01;75.08;101018.47;5008482;28;45435;-74
2022/11/10 01:13:01;;;;;;;;;1.00;1.00;;;;;12.09;75.12;101035.31;4996856;28;46125;-75
2022/11/10 01:15:26;;;;;;;;;1.33;1.33;;;;;12.06;75.16;101019.53;5011533;28;45636;-75
2022/11/10 01:17:53;;;;;;;;;1.67;1.00;;;;;12.11;74.71;101031.00;5013696;28;45548;-75
2022/11/10 01:20:20;;;;;;;;;0.33;0.00;;;;;12.12;75.11;101035.44;4997321;28;45288;-75
2022/11/10 01:22:45;;;;;;;;;0.33;0.00;;;;;12.13;74.76;101030.22;5004334;28;46267;-74
2022/11/10 01:25:11;;;;;;;;;1.00;0.00;;;;;12.21;75.11;101032.19;5002703;28;45545;-75
2022/11/10 01:27:36;;;;;;;;;0.00;0.00;;;;;12.25;74.62;101034.06;5015871;28;45496;-75
2022/11/10 01:30:03;;;;;;;;;0.67;0.00;;;;;12.29;74.80;101039.44;5016013;28;45613;-75
2022/11/10 01:32:28;;;;;;;;;0.33;0.00;;;;;12.30;75.00;101040.34;5006719;28;45909;-75
2022/11/10 01:34:56;;;;;;;;;0.00;0.00;;;;;12.33;74.92;101043.03;4996998;28;45464;-73
2022/11/10 01:37:21;;;;;;;;;1.00;0.00;;;;;12.36;75.26;101047.50;5005044;28;45397;-74
2022/11/10 01:39:47;;;;;;;;;0.00;0.00;;;;;12.39;75.02;101047.59;5002240;28;45382;-75
2022/11/10 01:42:13;;;;;;;;;0.00;0.00;;;;;12.34;75.43;101036.97;4996602;28;45463;-73
2022/11/10 01:44:40;;;;;;;;;1.00;0.00;;;;;12.44;75.22;101046.00;5015679;28;45457;-72
2022/11/10 01:47:06;;;;;;;;;0.00;0.00;;;;;12.46;74.97;101055.69;5016432;28;45690;-75
2022/11/10 01:49:34;;;;;;;;;0.67;0.00;;;;;12.48;74.71;101048.75;5016274;28;45572;-73
2022/11/10 01:52:13;;;;;;;;;0.00;0.00;;;;;12.47;75.55;101052.25;5016847;28;45467;-74
2022/11/10 01:54:45;;;;;;;;;1.00;0.00;;;;;12.50;75.03;101060.19;5004759;28;45481;-74
2022/11/10 01:57:14;;;;;;;;;0.00;0.00;;;;;12.55;74.94;101060.31;4996645;28;45464;-72
2022/11/10 01:59:44;;;;;;;;;0.00;0.00;;;;;12.58;75.10;101056.91;4996789;28;45510;-74
2022/11/10 02:02:32;;;;;;;;;1.00;0.00;;;;;12.58;74.79;101056.91;4996443;28;46282;-75
2022/11/10 02:05:00;;;;;;;;;0.00;0.00;;;;;12.60;74.77;101063.09;4996680;28;45339;-73
2022/11/10 02:07:26;;;;;;;;;3.00;2.00;;;;;12.55;75.33;101057.69;4996729;28;45434;-75
2022/11/10 02:09:52;;;;;;;;;2.67;2.67;;;;;12.49;75.38;101053.19;5011478;28;45502;-73
2022/11/10 02:12:35;;;;;;;;;2.00;2.00;;;;;12.49;75.40;101053.19;5010682;28;46433;-74
2022/11/10 02:15:06;;;;;;;;;1.25;1.25;;;;;12.48;74.59;101048.75;5005213;28;45490;-74
2022/11/10 02:17:32;;;;;;;;;2.33;1.00;;;;;12.46;74.48;101053.06;5002153;28;45353;-74
2022/11/10 02:20:01;;;;;;;;;5.50;4.00;;;;;12.50;74.36;101041.84;5009499;28;45242;-73
2022/11/10 02:22:26;;;;;;;;;4.00;3.50;;;;;12.52;74.50;101053.25;4996533;28;46281;-74
2022/11/10 02:24:52;;;;;;;;;3.00;3.00;;;;;12.52;74.96;101041.88;5012014;28;45467;-75
2022/11/10 02:27:17;;;;;;;;;2.00;2.00;;;;;12.55;74.62;101044.59;5008956;28;45577;-74
2022/11/10 02:29:43;;;;;;;;;1.00;1.00;;;;;12.53;74.63;101038.41;5010197;28;45394;-74
2022/11/10 02:32:08;;;;;;;;;3.00;1.33;;;;;12.53;74.64;101049.81;5011244;28;45594;-74
2022/11/10 02:34:33;;;;;;;;;1.00;1.00;;;;;12.48;74.88;101037.41;5002412;28;45836;-71
2022/11/10 02:36:59;;;;;;;;;1.00;1.00;;;;;12.09;74.74;100975.97;5003115;28;45490;-75
2022/11/10 02:39:24;;;;;;;;;1.33;1.33;;;;;12.35;75.14;101030.88;5010905;28;45529;-74
2022/11/10 02:41:50;;;;;;;;;1.33;1.00;;;;;12.28;75.22;101036.78;4999438;28;45537;-75
2022/11/10 02:44:15;;;;;;;;;1.00;1.00;;;;;12.21;75.91;101032.19;4999184;28;45318;-74
2022/11/10 02:46:41;;;;;;;;;2.00;1.00;;;;;12.17;76.18;101046.03;5018986;28;45375;-75
2022/11/10 02:49:07;;;;;;;;;2.25;2.25;;;;;12.12;75.93;101031.06;5019112;28;45255;-74
2022/11/10 02:51:32;;;;;;;;;1.25;1.00;;;;;11.99;75.85;101007.94;5018266;28;46210;-74
2022/11/10 02:53:58;;;;;;;;;1.25;1.00;;;;;12.13;76.31;101027.59;5018461;28;45529;-73
2022/11/10 02:56:26;;;;;;;;;1.00;1.00;;;;;12.06;76.53;101019.53;5019340;28;45502;-74
2022/11/10 02:58:51;;;;;;;;;2.67;1.00;;;;;12.05;76.89;101030.81;5018823;28;45459;-74
2022/11/10 03:01:17;;;;;;;;;1.00;1.00;;;;;11.97;76.97;101032.31;5017981;28;46165;-75
2022/11/10 03:03:42;;;;;;;;;1.00;1.00;;;;;11.94;76.77;101038.34;5004988;28;45508;-74
2022/11/10 03:06:08;;;;;;;;;1.00;1.00;;;;;11.80;77.00;101026.47;5007494;28;46077;-74
2022/11/10 03:08:34;;;;;;;;;1.00;1.00;;;;;11.68;77.48;101030.50;5016245;28;45623;-74
2022/11/10 03:10:59;;;;;;;;;0.33;0.00;;;;;11.61;77.90;101036.34;5008277;28;45556;-74
2022/11/10 03:13:25;;;;;;;;;0.67;0.67;;;;;11.53;77.92;101030.84;5000032;28;45730;-73
2022/11/10 03:15:51;;;;;;;;;1.00;0.67;;;;;11.45;78.59;101021.88;5009389;28;45508;-75
2022/11/10 03:18:16;;;;;;;;;4.75;4.75;;;;;11.41;78.32;101029.56;4999219;28;45428;-74
2022/11/10 03:20:45;;;;;;;;;1.00;0.00;;;;;11.35;78.19;101025.00;5005979;28;45966;-74
2022/11/10 03:23:10;;;;;;;;;0.00;0.00;;;;;11.30;78.13;101024.84;5018793;28;45485;-74
2022/11/10 03:25:37;;;;;;;;;0.00;0.00;;;;;11.22;78.06;101021.09;5019347;28;45255;-73
2022/11/10 03:28:03;;;;;;;;;0.67;0.00;;;;;11.12;77.95;101005.88;5018796;28;45530;-74
2022/11/10 03:30:28;;;;;;;;;1.00;0.00;;;;;11.14;77.92;101025.13;5018669;28;45417;-74
2022/11/10 03:32:54;;;;;;;;;0.33;0.00;;;;;11.09;78.20;101027.59;5013948;28;45444;-74
2022/11/10 03:35:19;;;;;;;;;0.33;0.33;;;;;11.07;78.22;101033.63;4998618;28;45378;-74
2022/11/10 03:37:45;;;;;;;;;0.00;0.00;;;;;10.97;77.90;101021.94;4997406;28;45324;-71
2022/11/10 03:40:11;;;;;;;;;0.00;0.00;;;;;10.99;77.84;101030.72;5010933;28;45433;-70
2022/11/10 03:42:41;;;;;;;;;0.00;0.00;;;;;10.94;78.54;101041.03;5018561;28;45409;-75
2022/11/10 03:45:07;;;;;;;;;1.00;0.00;;;;;10.93;78.23;101036.63;5018002;28;45374;-74
2022/11/10 03:47:33;;;;;;;;;0.00;0.00;;;;;10.85;78.19;101026.72;5016723;28;45529;-74
2022/11/10 03:49:58;;;;;;;;;0.33;0.33;;;;;10.87;78.48;101044.22;5017770;28;46326;-74
2022/11/10 03:52:24;;;;;;;;;1.75;1.75;;;;;10.84;78.47;101038.91;5017723;28;45384;-75
2022/11/10 03:54:49;;;;;;;;;73.25;51.25;;;;;10.80;78.68;101044.81;5006262;28;45371;-73
2022/11/10 03:57:15;;;;;;;;;83.00;61.25;;;;;10.72;78.98;101039.34;5012527;28;45469;-74
2022/11/10 03:59:40;;;;;;;;;17.75;17.00;;;;;10.71;79.15;101050.63;5014880;28;46113;-74
2022/11/10 04:02:06;;;;;;;;;6.00;6.00;;;;;10.69;79.09;101061.84;5017589;28;46185;-74
2022/11/10 04:09:59;;;;;;;;;60.75;44.25;;;;;10.59;79.13;101072.78;5011730;28;45985;-74
2022/11/10 04:18:19;;;;;;;;;0.00;0.00;;;;;10.41;78.59;101066.03;5004223;28;45455;-74
2022/11/10 04:20:44;;;;;;;;;0.00;0.00;;;;;10.36;78.64;101064.94;5003039;28;46095;-75
2022/11/10 04:28:44;;;;;;;;;0.00;0.00;;;;;10.29;79.02;101089.00;4997785;28;45550;-73
2022/11/10 04:31:11;;;;;;;;;0.00;0.00;;;;;10.27;79.21;101095.91;5004777;28;46031;-73
2022/11/10 04:33:38;;;;;;;;;1.00;0.00;;;;;10.24;79.47;101086.19;5005652;28;45487;-74
2022/11/10 04:36:05;;;;;;;;;1.00;1.00;;;;;10.19;79.36;101087.75;5007984;28;45399;-74
2022/11/10 04:38:30;;;;;;;;;3.00;2.00;;;;;10.15;79.49;101093.69;5008893;28;45462;-73
2022/11/10 04:40:56;;;;;;;;;0.00;0.00;;;;;10.07;79.69;101093.38;5009092;28;47118;-73
2022/11/10 04:43:22;;;;;;;;;0.00;0.00;;;;;10.00;79.28;101082.59;5007214;28;45462;-73
2022/11/10 04:45:47;;;;;;;;;0.75;0.00;;;;;10.03;79.35;101101.03;5017836;28;45411;-73
2022/11/10 04:48:13;;;;;;;;;0.50;0.00;;;;;10.03;79.58;101099.28;5008374;28;45494;-73
2022/11/10 04:50:38;;;;;;;;;0.00;0.00;;;;;10.02;79.37;101102.72;5010694;28;46159;-75
2022/11/10 04:53:04;;;;;;;;;0.00;0.00;;;;;10.00;79.64;101101.75;5007496;28;45332;-75
2022/11/10 04:55:29;;;;;;;;;0.00;0.00;;;;;9.95;78.81;101088.53;5006017;28;45270;-75
2022/11/10 04:57:55;;;;;;;;;0.00;0.00;;;;;9.99;78.70;101107.81;5003953;28;45412;-75
2022/11/10 05:00:21;;;;;;;;;1.00;0.00;;;;;9.96;79.04;101100.75;4995861;28;46357;-75
2022/11/10 05:02:46;;;;;;;;;3.00;2.00;;;;;9.95;79.35;101100.69;5008746;28;45605;-74
2022/11/10 05:05:12;;;;;;;;;3.00;2.75;;;;;9.93;79.17;101107.56;5008964;28;45474;-74
2022/11/10 05:07:37;;;;;;;;;4.00;3.75;;;;;9.92;79.40;101103.16;5004665;28;45478;-75
2022/11/10 05:10:03;;;;;;;;;1.00;1.00;;;;;9.87;79.15;101107.31;4995138;28;45518;-74
2022/11/10 05:12:29;;;;;;;;;2.00;2.00;;;;;9.79;78.89;101106.09;4996664;28;45410;-75
2022/11/10 05:14:55;;;;;;;;;3.00;2.25;;;;;9.82;78.88;101117.56;5012103;28;45417;-73
2022/11/10 05:17:21;;;;;;;;;0.50;0.00;;;;;9.73;79.00;101112.84;4999581;28;45428;-75
2022/11/10 05:19:49;;;;;;;;;3.25;3.25;;;;;9.74;79.38;101114.59;5008727;28;45574;-73
2022/11/10 05:22:15;;;;;;;;;7.25;7.00;;;;;9.74;79.09;101117.22;5007699;28;45437;-75
2022/11/10 05:24:40;;;;;;;;;0.75;0.75;;;;;9.71;78.82;101113.63;4997675;28;45889;-74
2022/11/10 05:27:09;;;;;;;;;0.00;0.00;;;;;9.64;78.28;101107.22;5013896;28;45556;-74
2022/11/10 05:29:39;;;;;;;;;0.75;0.50;;;;;9.67;78.57;101120.41;5015169;28;46889;-74
2022/11/10 05:32:10;;;;;;;;;1.00;0.00;;;;;9.66;78.48;101122.94;5016687;28;45407;-73
2022/11/10 05:34:39;;;;;;;;;2.00;0.00;;;;;9.63;78.40;101125.41;5016983;28;45383;-74
2022/11/10 05:37:11;;;;;;;;;1.00;0.00;;;;;9.54;78.69;101115.47;5015912;28;45493;-74
2022/11/10 05:39:37;;;;;;;;;0.00;0.00;;;;;9.59;78.87;101127.03;4999834;28;46393;-73
2022/11/10 05:42:03;;;;;;;;;0.75;0.75;;;;;9.55;79.06;101125.13;4996060;28;45653;-72
2022/11/10 05:44:28;;;;;;;;;1.25;1.00;;;;;9.54;78.98;101131.13;5011325;28;45284;-71
2022/11/10 05:46:54;;;;;;;;;19.75;17.00;;;;;9.50;78.83;101118.78;5016378;28;45350;-75
2022/11/10 05:49:19;;;;;;;;;11.00;9.00;;;;;9.50;78.59;101126.63;5014809;28;45466;-72
2022/11/10 05:51:45;;;;;;;;;1.00;1.00;;;;;9.48;78.04;101126.53;4996381;28;45457;-74
2022/11/10 05:54:10;;;;;;;;;2.00;1.00;;;;;9.46;78.28;101124.69;5010667;28;45356;-74
2022/11/10 05:56:36;;;;;;;;;0.25;0.25;;;;;9.36;78.58;101119.06;5015320;28;45374;-73
2022/11/10 05:59:01;;;;;;;;;2.75;1.25;;;;;9.39;78.98;101127.84;5015259;28;45406;-74
2022/11/10 06:01:27;;;;;;;;;2.00;2.00;;;;;9.35;79.34;101126.81;5017825;28;45373;-74
2022/11/10 06:03:52;;;;;;;;;1.00;0.00;;;;;9.33;78.90;101134.59;5019087;28;45704;-73
2022/11/10 06:06:18;;;;;;;;;4.00;3.75;;;;;9.26;78.93;101116.88;5019443;28;45627;-73
2022/11/10 06:08:44;;;;;;;;;8.00;8.00;;;;;9.29;78.96;101135.28;5018279;28;45739;-74
2022/11/10 06:11:09;;;;;;;;;3.00;3.00;;;;;9.27;79.12;101134.31;5018918;28;45527;-73
2022/11/10 06:13:35;;;;;;;;;1.00;1.00;;;;;9.24;79.00;101139.38;5005906;28;45527;-75
2022/11/10 06:16:00;;;;;;;;;1.00;1.00;;;;;9.19;78.49;101142.59;5000237;28;45439;-75
2022/11/10 06:18:26;;;;;;;;;1.00;1.00;;;;;9.16;78.60;101141.66;5011583;28;45375;-75
2022/11/10 06:20:51;;;;;;;;;1.25;1.25;;;;;9.08;78.62;101134.31;5010566;28;45430;-75
2022/11/10 06:23:17;;;;;;;;;1.00;1.00;;;;;9.07;79.00;101137.72;5003321;28;45411;-75
2022/11/10 06:25:43;;;;;;;;;1.00;0.75;;;;;9.11;78.86;101143.16;5015958;28;45159;-74
2022/11/10 06:28:09;;;;;;;;;2.50;1.75;;;;;9.10;79.33;101151.78;5006792;28;45307;-75
2022/11/10 06:30:37;;;;;;;;;2.50;1.00;;;;;9.10;78.72;101151.78;5012749;28;45422;-73
2022/11/10 06:33:03;;;;;;;;;0.00;0.00;;;;;9.08;78.89;101153.44;4998069;28;45420;-73
2022/11/10 06:35:29;;;;;;;;;0.00;0.00;;;;;9.04;78.94;101142.81;5006745;28;45772;-75
2022/11/10 06:38:02;;;;;;;;;0.00;0.00;;;;;9.06;78.39;101151.59;5005264;28;46330;-75
2022/11/10 06:40:29;;;;;;;;;1.00;0.00;;;;;9.06;78.73;101149.00;5014420;28;45370;-75
2022/11/10 06:42:56;;;;;;;;;0.00;0.00;;;;;9.05;78.99;101152.41;5003969;28;45606;-75
2022/11/10 06:45:23;;;;;;;;;0.00;0.00;;;;;8.98;79.38;101146.03;5009763;28;45378;-74
2022/11/10 06:47:58;;;;;;;;;0.00;0.00;;;;;9.00;79.52;101153.94;5011959;28;45469;-75
2022/11/10 06:50:24;;;;;;;;;0.00;0.00;;;;;8.93;79.47;101135.41;5001945;28;45317;-75
2022/11/10 06:52:54;;;;;;;;;1.00;1.00;;;;;8.96;79.21;101143.34;5012392;28;45289;-76
2022/11/10 06:55:20;;;;;;;;;1.75;1.75;;;;;9.03;79.31;101160.19;5009480;28;45514;-76
2022/11/10 06:57:45;;;;;;;;;7.25;6.00;;;;;9.05;79.08;101162.81;5016445;28;45530;-75
2022/11/10 07:00:11;;;;;;;;;10.00;9.25;;;;;9.05;79.03;101158.53;4999987;28;45471;-75
2022/11/10 07:02:37;;;;;;;;;8.25;8.25;;;;;9.07;78.95;101163.78;4998920;28;45707;-75
2022/11/10 07:05:03;;;;;;;;;2.50;2.25;;;;;9.09;79.02;101167.34;5009131;28;45270;-75
2022/11/10 07:07:28;;;;;;;;;1.00;1.00;;;;;9.09;78.83;101167.34;5003737;28;46215;-75
2022/11/10 07:09:54;;;;;;;;;3.00;2.00;;;;;9.10;78.92;101175.25;5000560;28;45350;-74
2022/11/10 07:12:19;;;;;;;;;5.50;5.00;;;;;9.09;78.95;101167.34;5012131;28;45323;-74
2022/11/10 07:14:45;;;;;;;;;4.75;2.50;;;;;9.16;78.72;101177.25;5007684;28;45494;-75
2022/11/10 07:17:10;;;;;;;;;4.00;2.75;;;;;9.18;78.44;101178.22;5013063;28;46288;-74
2022/11/10 07:19:36;;;;;;;;;1.00;1.00;;;;;9.21;77.94;101178.38;5007445;28;45439;-76
2022/11/10 07:22:02;;;;;;;;;2.00;1.00;;;;;9.23;77.51;101179.34;5005295;28;45421;-75
2022/11/10 07:24:29;;;;;;;;;1.00;1.00;;;;;9.24;77.75;101178.50;5003732;28;45432;-74
2022/11/10 07:26:56;;;;;;;;;3.00;2.75;;;;;9.28;77.96;101187.34;5008409;28;45497;-74
2022/11/10 07:29:22;;;;;;;;;1.00;1.00;;;;;9.31;77.72;101192.69;5008436;28;45573;-75
2022/11/10 07:31:47;;;;;;;;;2.00;1.00;;;;;9.33;77.48;101189.34;5006341;28;45483;-74
2022/11/10 07:34:13;;;;;;;;;1.00;1.00;;;;;9.35;77.37;101198.13;5007645;28;45584;-71
2022/11/10 07:36:39;;;;;;;;;1.00;0.00;;;;;9.38;77.32;101193.88;5008936;28;46153;-69
2022/11/10 07:39:05;;;;;;;;;4.25;4.00;;;;;9.39;77.46;101195.66;5007884;28;45638;-74
2022/11/10 07:41:30;;;;;;;;;5.50;4.50;;;;;9.42;77.40;101201.91;5008748;28;45489;-73
2022/11/10 07:43:56;;;;;;;;;16.00;14.00;;;;;9.43;77.17;101202.78;5006675;28;45498;-73
2022/11/10 07:46:21;;;;;;;;;18.50;16.00;;;;;9.49;76.96;101197.84;5008037;28;45760;-75
2022/11/10 07:48:47;;;;;;;;;2.00;2.00;;;;;9.57;77.03;101199.09;5007747;28;45415;-74
2022/11/10 07:51:12;;;;;;;;;1.00;1.00;;;;;9.66;76.62;101207.31;5007241;28;45560;-71
2022/11/10 07:53:39;;;;;;;;;1.00;1.00;;;;;9.72;76.58;101206.69;5008952;28;45447;-69
2022/11/10 07:56:05;;;;;;;;;0.00;0.00;;;;;9.80;76.61;101204.44;5007089;28;45592;-70
2022/11/10 07:58:31;;;;;;;;;2.50;2.25;;;;;9.84;76.27;101207.22;5007318;28;45544;-73
2022/11/10 08:00:57;;;;;;;;;5.25;4.50;;;;;9.87;76.43;101202.16;5008800;28;45248;-71
2022/11/10 08:03:22;;;;;;;;;10.00;8.00;;;;;10.00;76.18;101211.38;5007196;28;45422;-74
2022/11/10 08:05:48;;;;;;;;;2.50;1.50;;;;;9.99;75.89;101206.09;5007484;28;45914;-73
2022/11/10 08:08:13;;;;;;;;;2.00;1.00;;;;;10.03;76.11;101214.16;5007506;28;45343;-72
2022/11/10 08:10:40;;;;;;;;;1.00;0.75;;;;;10.03;76.21;101206.31;5009239;28;45379;-74
2022/11/10 08:13:08;;;;;;;;;0.50;0.50;;;;;10.10;76.36;101223.13;5007296;28;45558;-72
2022/11/10 08:15:34;;;;;;;;;1.00;0.00;;;;;10.08;76.72;101227.38;5006998;28;45576;-73
2022/11/10 08:18:02;;;;;;;;;1.67;0.67;;;;;10.29;76.70;101227.41;5005450;28;45594;-75
2022/11/10 08:20:28;;;;;;;;;0.00;0.00;;;;;12.75;72.45;101223.44;4997980;28;45348;-73
2022/11/10 08:22:59;;;;;;;;;2.00;1.00;;;;;15.27;63.22;101209.19;5010021;28;45284;-73
2022/11/10 08:25:26;;;;;;;;;3.00;2.00;;;;;16.97;57.30;101206.97;5000706;28;46329;-74
2022/11/10 08:28:00;;;;;;;;;3.00;3.00;;;;;18.29;53.39;101206.78;5010848;28;45412;-74
2022/11/10 08:30:26;;;;;;;;;2.33;1.33;;;;;19.28;50.49;101205.72;5007754;28;45625;-69
2022/11/10 08:33:00;;;;;;;;;1.00;0.00;;;;;20.05;50.21;101200.69;5006816;28;45240;-74
2022/11/10 08:35:29;;;;;;;;;1.33;0.67;;;;;20.57;47.17;101183.91;5007514;28;45404;-71
2022/11/10 08:37:54;;;;;;;;;7.00;6.00;;;;;21.16;46.27;101195.28;5009081;28;45513;-74
2022/11/10 08:40:21;;;;;;;;;1.00;1.00;;;;;21.61;45.69;101206.66;5004201;28;45768;-72
2022/11/10 08:42:47;;;;;;;;;0.67;0.67;;;;;22.05;43.48;101201.97;5010199;28;45730;-73
2022/11/10 08:45:14;;;;;;;;;2.00;1.00;;;;;22.30;42.65;101197.38;5007307;28;45855;-74
2022/11/10 08:47:39;;;;;;;;;3.00;3.00;;;;;22.44;41.58;101200.81;5007154;28;45718;-74
2022/11/10 08:50:06;;;;;;;;;0.00;0.00;;;;;22.61;42.81;101205.09;5007700;28;45958;-79
2022/11/10 08:52:32;;;;;;;;;0.00;0.00;;;;;22.75;40.50;101194.31;5008525;28;45529;-71
2022/11/10 08:54:58;;;;;;;;;0.00;0.00;;;;;22.70;40.48;101188.13;5000078;28;45713;-71
2022/11/10 08:57:24;;;;;;;;;0.00;0.00;;;;;22.68;40.97;101192.59;5009669;28;45379;-73
2022/11/10 08:59:49;;;;;;;;;0.00;0.00;;;;;22.58;40.66;101194.47;5007246;28;45377;-73
2022/11/10 09:02:15;;;;;;;;;0.00;0.00;;;;;22.48;41.03;101192.78;5002489;28;45363;-71
2022/11/10 09:04:41;;;;;;;;;0.33;0.33;;;;;22.32;41.42;101198.28;5003216;28;46182;-73
2022/11/10 09:07:07;;;;;;;;;0.00;0.00;;;;;22.23;41.96;101196.50;5009568;28;45710;-75
2022/11/10 09:09:32;;;;;;;;;0.00;0.00;;;;;22.12;42.28;101192.16;4996718;28;46246;-73
2022/11/10 09:11:58;;;;;;;;;0.00;0.00;;;;;22.09;41.26;101184.22;5006501;28;45631;-76
2022/11/10 09:14:25;;;;;;;;;0.67;0.00;;;;;21.98;42.27;101198.44;4998171;28;45709;-78
2022/11/10 09:16:51;;;;;;;;;2.00;0.00;;;;;21.89;43.94;101205.63;5007967;28;45656;-79
2022/11/10 09:19:18;;;;;;;;;0.00;0.00;;;;;21.97;42.71;101195.81;5007789;28;45580;-73
2022/11/10 09:21:43;;;;;;;;;1.00;1.00;;;;;22.00;43.40;101194.03;5005027;28;45608;-75
2022/11/10 09:24:09;;;;;;;;;0.00;0.00;;;;;21.95;43.47;101203.81;5006771;28;46354;-76
2022/11/10 09:26:34;;;;;;;;;3.00;0.00;;;;;21.92;43.32;101202.94;5009101;28;45556;-75
2022/11/10 09:29:00;;;;;;;;;1.00;1.00;;;;;21.76;44.21;101200.38;5006587;28;45639;-73
2022/11/10 09:31:25;;;;;;;;;2.00;1.00;;;;;21.96;44.57;101213.53;5005234;28;45646;-75
2022/11/10 09:33:51;;;;;;;;;1.00;1.00;;;;;21.85;44.13;101212.75;5002266;28;45466;-75
2022/11/10 09:36:16;;;;;;;;;0.33;0.33;;;;;21.76;44.96;101212.78;5014961;28;45420;-74
2022/11/10 09:38:42;;;;;;;;;1.00;1.00;;;;;21.60;44.55;101209.31;5008466;28;45462;-75
2022/11/10 09:41:12;;;;;;;;;0.33;0.33;;;;;21.60;44.58;101218.19;5007026;28;45518;-75
2022/11/10 09:44:15;;;;;;;;;1.33;1.33;;;;;21.52;45.97;101217.34;5006783;28;45437;-75
2022/11/10 09:46:47;;;;;;;;;1.00;1.00;;;;;21.85;45.68;101216.28;4999900;28;45568;-75
2022/11/10 09:49:40;;;;;;;;;1.00;1.00;;;;;22.10;44.73;101220.56;4999644;28;45490;-75
2022/11/10 09:52:07;;;;;;;;;0.00;0.00;;;;;22.21;45.02;101216.06;5015323;28;45358;-75
2022/11/10 09:54:50;;;;;;;;;2.00;2.00;;;;;22.36;45.28;101209.75;4999365;28;46101;-75
2022/11/10 09:57:20;;;;;;;;;4.00;2.67;;;;;22.37;44.85;101219.50;5010656;28;45371;-75
2022/11/10 09:59:49;;;;;;;;;2.33;1.33;;;;;22.44;43.36;101218.53;5002749;28;45835;-74
2022/11/10 10:02:38;;;;;;;;;1.67;1.00;;;;;22.27;44.14;101213.38;5015292;28;45460;-80
2022/11/10 10:05:22;;;;;;;;;2.00;2.00;;;;;21.94;43.18;101228.63;5022370;28;45701;-71
2022/11/10 10:08:05;;;;;;;;;4.67;4.67;;;;;21.87;45.34;101224.25;5014395;28;45682;-75
2022/11/10 10:10:48;;;;;;;;;1.67;1.00;;;;;21.78;44.25;101222.50;5016078;28;45519;-78
2022/11/10 10:13:51;;;;;;;;;3.00;2.00;;;;;21.47;44.85;101221.81;5017916;28;45439;-76
2022/11/10 10:16:44;;;;;;;;;1.00;1.00;;;;;21.40;45.68;101214.69;5011754;28;46302;-72
2022/11/10 10:19:52;;;;;;;;;0.00;0.00;;;;;21.64;45.71;101227.91;5027561;28;45509;-82
2022/11/10 10:22:41;;;;;;;;;0.00;0.00;;;;;21.91;45.91;101228.66;5006166;28;45472;-75
2022/11/10 10:25:19;;;;;;;;;0.00;0.00;;;;;22.08;45.26;101220.56;5009996;28;45583;-75
2022/11/10 10:27:50;;;;;;;;;1.00;1.00;;;;;21.99;44.58;101232.16;5006443;28;45522;-78
2022/11/10 10:30:19;;;;;;;;;2.00;0.67;;;;;22.04;45.05;101230.38;5009828;28;45548;-74
2022/11/10 10:32:45;;;;;;;;;1.00;0.00;;;;;22.10;45.58;101216.13;5010590;28;45511;-79
2022/11/10 10:35:15;;;;;;;;;0.33;0.00;;;;;22.22;45.13;101226.69;5007161;28;45352;-76
2022/11/10 10:37:50;;;;;;;;;0.00;0.00;;;;;22.37;45.55;101227.50;5025737;28;45576;-76
2022/11/10 10:40:18;;;;;;;;;0.00;0.00;;;;;22.36;45.07;101229.28;5004837;28;45562;-73
2022/11/10 10:42:44;;;;;;;;;0.00;0.00;;;;;22.39;44.58;101239.88;5001492;28;45492;-73
2022/11/10 10:45:15;;;;;;;;;1.00;1.00;;;;;22.45;44.58;101230.97;5009104;28;45505;-74
2022/11/10 10:47:42;;;;;;;;;0.33;0.00;;;;;22.34;43.15;101241.72;5005563;28;46295;-74
2022/11/10 10:50:28;;;;;;;;;1.67;1.33;;;;;21.91;44.05;101233.13;5006709;28;45642;-74
2022/11/10 10:53:14;;;;;;;;;2.33;2.00;;;;;21.63;44.44;101228.81;5007518;28;45859;-76
2022/11/10 10:55:58;;;;;;;;;3.33;2.00;;;;;21.63;44.82;101235.91;5004213;28;45537;-72
2022/11/10 10:58:29;;;;;;;;;2.00;2.00;;;;;21.63;45.08;101228.81;5016704;28;45817;-76
2022/11/10 11:01:06;;;;;;;;;1.00;1.00;;;;;21.67;45.18;101226.16;5017336;28;45781;-74
2022/11/10 11:03:46;;;;;;;;;4.33;4.00;;;;;21.54;43.50;101234.16;5017704;28;45632;-71
2022/11/10 11:06:18;;;;;;;;;1.00;0.33;;;;;21.58;44.74;101227.06;5016981;28;45462;-77
2022/11/10 11:09:18;;;;;;;;;4.00;3.00;;;;;21.68;45.04;101227.91;5011635;28;45479;-73
2022/11/10 11:11:57;;;;;;;;;6.00;5.00;;;;;21.52;44.69;101219.13;5019859;28;45366;-77
2022/11/10 11:14:24;;;;;;;;;3.00;2.00;;;;;21.57;45.08;101222.66;5008347;28;45447;-79
2022/11/10 11:16:55;;;;;;;;;1.00;1.00;;;;;21.61;44.55;101217.31;5012290;28;45403;-77
2022/11/10 11:19:28;;;;;;;;;1.00;1.00;;;;;21.66;44.24;101222.59;4999345;28;47805;-77
2022/11/10 11:22:04;;;;;;;;;0.67;0.00;;;;;21.67;41.97;101215.53;5011860;28;45304;-76
2022/11/10 11:24:53;;;;;;;;;0.00;0.00;;;;;21.76;42.29;101215.44;5009197;28;45466;-74
2022/11/10 11:27:38;;;;;;;;;0.00;0.00;;;;;21.65;42.11;101216.41;5001154;28;45501;-78
2022/11/10 11:30:16;;;;;;;;;2.00;1.00;;;;;21.55;42.77;101212.00;5015876;28;46043;-76
2022/11/10 11:33:07;;;;;;;;;0.33;0.00;;;;;21.26;42.37;101214.75;4999981;28;45623;-75
2022/11/10 11:35:52;;;;;;;;;0.00;0.00;;;;;21.06;42.78;101209.50;4998511;28;45440;-79
2022/11/10 11:38:29;;;;;;;;;0.00;0.00;;;;;20.93;43.09;101202.44;4998622;28;45540;-76
2022/11/10 11:41:12;;;;;;;;;0.00;0.00;;;;;20.88;43.66;101185.66;4999271;28;45765;-73
2022/11/10 11:44:19;;;;;;;;;0.00;0.00;;;;;20.75;44.13;101195.41;5002055;28;45486;-76
2022/11/10 11:47:12;;;;;;;;;1.00;0.00;;;;;20.69;43.91;101185.69;5013720;28;45575;-76
2022/11/10 11:49:50;;;;;;;;;0.00;0.00;;;;;20.67;43.95;101184.78;5009818;28;45541;-73
2022/11/10 11:52:38;;;;;;;;;0.00;0.00;;;;;20.62;43.53;101187.44;5000667;28;45649;-74
2022/11/10 11:55:43;;;;;;;;;1.00;0.00;;;;;20.63;44.26;101183.94;5002781;28;45301;-75